sensor_id;sensor_type;location;lat;lon;timestamp;P1;durP1;ratioP1;P2;durP2;ratioP2
60257;SDS011;46115;44.484;11.314;2023-04-24T00:03:36;7.07;;;3.70;;
60257;SDS011;46115;44.484;11.314;2023-04-24T00:07:39;6.13;;;3.70;;
60257;SDS011;46115;44.484;11.314;2023-04-24T00:11:42;7.88;;;3.60;;
60257;SDS011;46115;44.484;11.314;2023-04-24T00:15:46;5.10;;;3.42;;
60257;SDS011;46115;44.484;11.314;2023-04-24T00:19:48;5.40;;;3.10;;
60257;SDS011;46115;44.484;11.314;2023-04-24T00:23:52;7.38;;;3.35;;
60257;SDS011;46115;44.484;11.314;2023-04-24T00:27:55;5.10;;;3.50;;
60257;SDS011;46115;44.484;11.314;2023-04-24T00:31:58;5.85;;;3.25;;
60257;SDS011;46115;44.484;11.314;2023-04-24T00:36:01;4.18;;;3.33;;
60257;SDS011;46115;44.484;11.314;2023-04-24T00:40:04;7.03;;;3.20;;
60257;SDS011;46115;44.484;11.314;2023-04-24T00:44:08;10.57;;;3.60;;
60257;SDS011;46115;44.484;11.314;2023-04-24T00:48:12;3.85;;;3.25;;
60257;SDS011;46115;44.484;11.314;2023-04-24T00:52:15;5.55;;;3.10;;
60257;SDS011;46115;44.484;11.314;2023-04-24T00:56:18;7.57;;;3.20;;
60257;SDS011;46115;44.484;11.314;2023-04-24T01:00:21;5.70;;;2.90;;
60257;SDS011;46115;44.484;11.314;2023-04-24T01:04:25;6.78;;;3.30;;
60257;SDS011;46115;44.484;11.314;2023-04-24T01:08:28;6.38;;;3.40;;
60257;SDS011;46115;44.484;11.314;2023-04-24T01:12:31;5.63;;;3.20;;
60257;SDS011;46115;44.484;11.314;2023-04-24T01:16:34;5.25;;;2.97;;
60257;SDS011;46115;44.484;11.314;2023-04-24T01:20:40;6.03;;;3.05;;
60257;SDS011;46115;44.484;11.314;2023-04-24T01:24:46;9.00;;;3.00;;
60257;SDS011;46115;44.484;11.314;2023-04-24T01:28:48;5.25;;;2.80;;
60257;SDS011;46115;44.484;11.314;2023-04-24T01:32:51;11.25;;;3.40;;
60257;SDS011;46115;44.484;11.314;2023-04-24T01:36:54;7.18;;;2.80;;
60257;SDS011;46115;44.484;11.314;2023-04-24T01:40:59;5.70;;;2.97;;
60257;SDS011;46115;44.484;11.314;2023-04-24T01:45:02;5.88;;;3.00;;
60257;SDS011;46115;44.484;11.314;2023-04-24T01:49:06;5.43;;;2.88;;
60257;SDS011;46115;44.484;11.314;2023-04-24T01:53:08;6.35;;;2.90;;
60257;SDS011;46115;44.484;11.314;2023-04-24T01:57:12;6.25;;;3.08;;
60257;SDS011;46115;44.484;11.314;2023-04-24T02:01:17;6.35;;;2.78;;
60257;SDS011;46115;44.484;11.314;2023-04-24T02:05:22;6.22;;;3.13;;
60257;SDS011;46115;44.484;11.314;2023-04-24T02:09:25;4.80;;;3.00;;
60257;SDS011;46115;44.484;11.314;2023-04-24T02:13:28;8.77;;;2.90;;
60257;SDS011;46115;44.484;11.314;2023-04-24T02:17:31;6.80;;;3.17;;
60257;SDS011;46115;44.484;11.314;2023-04-24T02:21:33;5.70;;;2.80;;
60257;SDS011;46115;44.484;11.314;2023-04-24T02:25:36;6.88;;;2.85;;
60257;SDS011;46115;44.484;11.314;2023-04-24T02:29:40;4.90;;;2.85;;
60257;SDS011;46115;44.484;11.314;2023-04-24T02:33:42;8.82;;;3.38;;
60257;SDS011;46115;44.484;11.314;2023-04-24T02:37:45;6.47;;;3.22;;
60257;SDS011;46115;44.484;11.314;2023-04-24T02:41:47;6.57;;;3.40;;
60257;SDS011;46115;44.484;11.314;2023-04-24T02:45:52;6.90;;;3.60;;
60257;SDS011;46115;44.484;11.314;2023-04-24T02:49:55;6.00;;;3.47;;
60257;SDS011;46115;44.484;11.314;2023-04-24T02:53:57;7.53;;;3.20;;
60257;SDS011;46115;44.484;11.314;2023-04-24T02:58:00;5.47;;;3.17;;
60257;SDS011;46115;44.484;11.314;2023-04-24T03:02:03;7.47;;;3.10;;
60257;SDS011;46115;44.484;11.314;2023-04-24T03:06:06;7.15;;;3.10;;
60257;SDS011;46115;44.484;11.314;2023-04-24T03:10:09;9.90;;;3.55;;
60257;SDS011;46115;44.484;11.314;2023-04-24T03:14:12;5.68;;;3.60;;
60257;SDS011;46115;44.484;11.314;2023-04-24T03:18:16;10.95;;;3.22;;
60257;SDS011;46115;44.484;11.314;2023-04-24T03:22:18;8.20;;;3.22;;
60257;SDS011;46115;44.484;11.314;2023-04-24T03:26:21;7.45;;;3.20;;
60257;SDS011;46115;44.484;11.314;2023-04-24T03:30:42;6.13;;;3.15;;
60257;SDS011;46115;44.484;11.314;2023-04-24T03:34:47;10.13;;;3.30;;
60257;SDS011;46115;44.484;11.314;2023-04-24T03:38:50;7.88;;;3.03;;
60257;SDS011;46115;44.484;11.314;2023-04-24T03:47:05;8.75;;;3.17;;
60257;SDS011;46115;44.484;11.314;2023-04-24T03:51:10;6.60;;;3.30;;
60257;SDS011;46115;44.484;11.314;2023-04-24T03:55:16;7.97;;;3.25;;
60257;SDS011;46115;44.484;11.314;2023-04-24T03:59:22;8.55;;;3.10;;
60257;SDS011;46115;44.484;11.314;2023-04-24T04:03:38;7.28;;;3.13;;
60257;SDS011;46115;44.484;11.314;2023-04-24T04:07:43;6.65;;;3.17;;
60257;SDS011;46115;44.484;11.314;2023-04-24T04:11:46;6.85;;;2.78;;
60257;SDS011;46115;44.484;11.314;2023-04-24T04:15:48;7.45;;;3.42;;
60257;SDS011;46115;44.484;11.314;2023-04-24T04:19:51;10.18;;;3.80;;
60257;SDS011;46115;44.484;11.314;2023-04-24T04:23:55;8.13;;;3.95;;
60257;SDS011;46115;44.484;11.314;2023-04-24T04:28:04;6.90;;;4.30;;
60257;SDS011;46115;44.484;11.314;2023-04-24T04:32:07;9.35;;;4.60;;
60257;SDS011;46115;44.484;11.314;2023-04-24T04:36:09;7.97;;;4.60;;
60257;SDS011;46115;44.484;11.314;2023-04-24T04:40:18;9.90;;;5.28;;
60257;SDS011;46115;44.484;11.314;2023-04-24T04:44:26;7.28;;;5.20;;
60257;SDS011;46115;44.484;11.314;2023-04-24T04:48:29;9.68;;;5.40;;
60257;SDS011;46115;44.484;11.314;2023-04-24T04:52:34;9.18;;;5.15;;
60257;SDS011;46115;44.484;11.314;2023-04-24T04:56:53;11.48;;;5.57;;
60257;SDS011;46115;44.484;11.314;2023-04-24T05:00:56;8.73;;;4.97;;
60257;SDS011;46115;44.484;11.314;2023-04-24T05:05:07;5.95;;;4.57;;
60257;SDS011;46115;44.484;11.314;2023-04-24T05:09:10;8.85;;;4.53;;
60257;SDS011;46115;44.484;11.314;2023-04-24T05:13:25;11.70;;;4.57;;
60257;SDS011;46115;44.484;11.314;2023-04-24T05:17:28;7.78;;;4.53;;
60257;SDS011;46115;44.484;11.314;2023-04-24T05:21:32;9.45;;;4.95;;
60257;SDS011;46115;44.484;11.314;2023-04-24T05:25:35;9.27;;;4.30;;
60257;SDS011;46115;44.484;11.314;2023-04-24T05:29:45;7.72;;;4.90;;
60257;SDS011;46115;44.484;11.314;2023-04-24T05:33:48;7.03;;;4.40;;
60257;SDS011;46115;44.484;11.314;2023-04-24T05:37:50;10.15;;;4.63;;
60257;SDS011;46115;44.484;11.314;2023-04-24T05:41:53;10.10;;;5.32;;
60257;SDS011;46115;44.484;11.314;2023-04-24T05:45:57;8.80;;;5.05;;
60257;SDS011;46115;44.484;11.314;2023-04-24T05:49:59;9.05;;;4.72;;
60257;SDS011;46115;44.484;11.314;2023-04-24T05:54:01;8.32;;;4.90;;
60257;SDS011;46115;44.484;11.314;2023-04-24T05:58:05;12.63;;;5.70;;
60257;SDS011;46115;44.484;11.314;2023-04-24T06:02:11;10.13;;;5.85;;
60257;SDS011;46115;44.484;11.314;2023-04-24T06:06:13;10.95;;;6.88;;
60257;SDS011;46115;44.484;11.314;2023-04-24T06:10:16;12.30;;;8.00;;
60257;SDS011;46115;44.484;11.314;2023-04-24T06:14:19;10.85;;;7.57;;
60257;SDS011;46115;44.484;11.314;2023-04-24T06:18:43;11.93;;;9.23;;
60257;SDS011;46115;44.484;11.314;2023-04-24T06:22:48;14.70;;;10.52;;
60257;SDS011;46115;44.484;11.314;2023-04-24T06:26:50;12.95;;;10.02;;
60257;SDS011;46115;44.484;11.314;2023-04-24T06:30:52;14.65;;;11.15;;
60257;SDS011;46115;44.484;11.314;2023-04-24T06:34:56;13.02;;;11.38;;
60257;SDS011;46115;44.484;11.314;2023-04-24T06:38:58;13.52;;;11.35;;
60257;SDS011;46115;44.484;11.314;2023-04-24T06:43:01;14.00;;;10.93;;
60257;SDS011;46115;44.484;11.314;2023-04-24T06:47:04;17.60;;;10.57;;
60257;SDS011;46115;44.484;11.314;2023-04-24T06:51:07;13.52;;;10.15;;
60257;SDS011;46115;44.484;11.314;2023-04-24T06:55:10;18.92;;;10.57;;
60257;SDS011;46115;44.484;11.314;2023-04-24T06:59:13;13.60;;;9.40;;
60257;SDS011;46115;44.484;11.314;2023-04-24T07:03:15;11.25;;;9.48;;
60257;SDS011;46115;44.484;11.314;2023-04-24T07:07:19;12.68;;;9.30;;
60257;SDS011;46115;44.484;11.314;2023-04-24T07:11:21;13.02;;;8.48;;
60257;SDS011;46115;44.484;11.314;2023-04-24T07:15:24;11.68;;;7.85;;
60257;SDS011;46115;44.484;11.314;2023-04-24T07:19:26;12.40;;;7.53;;
60257;SDS011;46115;44.484;11.314;2023-04-24T07:23:30;10.27;;;6.75;;
60257;SDS011;46115;44.484;11.314;2023-04-24T07:27:32;8.93;;;6.50;;
60257;SDS011;46115;44.484;11.314;2023-04-24T07:31:35;8.52;;;6.03;;
60257;SDS011;46115;44.484;11.314;2023-04-24T07:35:38;8.57;;;4.80;;
60257;SDS011;46115;44.484;11.314;2023-04-24T07:39:41;11.15;;;5.50;;
60257;SDS011;46115;44.484;11.314;2023-04-24T07:43:44;7.20;;;5.53;;
60257;SDS011;46115;44.484;11.314;2023-04-24T07:47:46;8.50;;;6.35;;
60257;SDS011;46115;44.484;11.314;2023-04-24T07:51:48;9.07;;;6.53;;
60257;SDS011;46115;44.484;11.314;2023-04-24T07:55:52;9.98;;;6.03;;
60257;SDS011;46115;44.484;11.314;2023-04-24T07:59:56;5.82;;;4.80;;
60257;SDS011;46115;44.484;11.314;2023-04-24T08:03:58;6.20;;;4.50;;
60257;SDS011;46115;44.484;11.314;2023-04-24T08:08:00;6.93;;;4.13;;
60257;SDS011;46115;44.484;11.314;2023-04-24T08:12:04;4.78;;;3.00;;
60257;SDS011;46115;44.484;11.314;2023-04-24T08:16:06;12.70;;;3.58;;
60257;SDS011;46115;44.484;11.314;2023-04-24T08:20:09;8.77;;;3.08;;
60257;SDS011;46115;44.484;11.314;2023-04-24T08:24:14;6.63;;;2.92;;
60257;SDS011;46115;44.484;11.314;2023-04-24T08:28:17;4.82;;;2.63;;
60257;SDS011;46115;44.484;11.314;2023-04-24T08:32:21;5.25;;;3.22;;
60257;SDS011;46115;44.484;11.314;2023-04-24T08:36:23;4.00;;;2.70;;
60257;SDS011;46115;44.484;11.314;2023-04-24T08:40:27;7.35;;;3.30;;
60257;SDS011;46115;44.484;11.314;2023-04-24T08:44:32;5.38;;;2.90;;
60257;SDS011;46115;44.484;11.314;2023-04-24T08:48:35;5.53;;;3.00;;
60257;SDS011;46115;44.484;11.314;2023-04-24T08:52:38;5.43;;;2.83;;
60257;SDS011;46115;44.484;11.314;2023-04-24T08:56:40;5.47;;;2.60;;
60257;SDS011;46115;44.484;11.314;2023-04-24T09:00:47;5.70;;;4.18;;
60257;SDS011;46115;44.484;11.314;2023-04-24T09:04:49;6.50;;;4.03;;
60257;SDS011;46115;44.484;11.314;2023-04-24T09:08:52;7.55;;;4.32;;
60257;SDS011;46115;44.484;11.314;2023-04-24T09:12:56;6.45;;;4.28;;
60257;SDS011;46115;44.484;11.314;2023-04-24T09:17:03;7.57;;;5.28;;
60257;SDS011;46115;44.484;11.314;2023-04-24T09:21:07;7.70;;;4.50;;
60257;SDS011;46115;44.484;11.314;2023-04-24T09:25:11;5.55;;;3.78;;
60257;SDS011;46115;44.484;11.314;2023-04-24T09:29:14;9.70;;;6.80;;
60257;SDS011;46115;44.484;11.314;2023-04-24T09:33:18;9.45;;;8.00;;
60257;SDS011;46115;44.484;11.314;2023-04-24T09:37:27;9.02;;;8.07;;
60257;SDS011;46115;44.484;11.314;2023-04-24T09:41:32;7.07;;;6.32;;
60257;SDS011;46115;44.484;11.314;2023-04-24T09:45:35;5.35;;;4.35;;
60257;SDS011;46115;44.484;11.314;2023-04-24T09:49:40;8.00;;;3.35;;
60257;SDS011;46115;44.484;11.314;2023-04-24T09:53:45;6.43;;;2.70;;
60257;SDS011;46115;44.484;11.314;2023-04-24T09:57:51;4.72;;;2.38;;
60257;SDS011;46115;44.484;11.314;2023-04-24T10:01:55;2.95;;;1.90;;
60257;SDS011;46115;44.484;11.314;2023-04-24T10:06:00;6.03;;;1.80;;
60257;SDS011;46115;44.484;11.314;2023-04-24T10:10:03;3.28;;;1.88;;
60257;SDS011;46115;44.484;11.314;2023-04-24T10:14:07;4.55;;;1.40;;
60257;SDS011;46115;44.484;11.314;2023-04-24T10:18:12;3.58;;;1.60;;
60257;SDS011;46115;44.484;11.314;2023-04-24T10:22:16;2.67;;;1.90;;
60257;SDS011;46115;44.484;11.314;2023-04-24T10:26:19;4.63;;;2.05;;
60257;SDS011;46115;44.484;11.314;2023-04-24T10:30:23;5.38;;;2.05;;
60257;SDS011;46115;44.484;11.314;2023-04-24T10:34:25;4.25;;;2.75;;
60257;SDS011;46115;44.484;11.314;2023-04-24T10:38:30;3.63;;;2.40;;
60257;SDS011;46115;44.484;11.314;2023-04-24T10:42:33;9.13;;;3.90;;
60257;SDS011;46115;44.484;11.314;2023-04-24T10:46:36;4.88;;;2.45;;
60257;SDS011;46115;44.484;11.314;2023-04-24T10:50:43;4.53;;;2.67;;
60257;SDS011;46115;44.484;11.314;2023-04-24T10:54:48;5.30;;;2.40;;
60257;SDS011;46115;44.484;11.314;2023-04-24T10:58:51;6.00;;;2.65;;
60257;SDS011;46115;44.484;11.314;2023-04-24T11:02:55;3.97;;;2.50;;
60257;SDS011;46115;44.484;11.314;2023-04-24T11:06:58;10.65;;;2.90;;
60257;SDS011;46115;44.484;11.314;2023-04-24T11:11:04;6.63;;;2.85;;
60257;SDS011;46115;44.484;11.314;2023-04-24T11:15:11;4.78;;;2.78;;
60257;SDS011;46115;44.484;11.314;2023-04-24T11:19:21;6.72;;;3.58;;
60257;SDS011;46115;44.484;11.314;2023-04-24T11:23:25;5.88;;;2.90;;
60257;SDS011;46115;44.484;11.314;2023-04-24T11:27:30;5.32;;;3.10;;
60257;SDS011;46115;44.484;11.314;2023-04-24T11:31:34;7.13;;;3.20;;
60257;SDS011;46115;44.484;11.314;2023-04-24T11:35:39;6.63;;;3.10;;
60257;SDS011;46115;44.484;11.314;2023-04-24T11:39:42;6.68;;;2.97;;
60257;SDS011;46115;44.484;11.314;2023-04-24T11:43:46;5.30;;;2.80;;
60257;SDS011;46115;44.484;11.314;2023-04-24T11:47:50;5.53;;;3.03;;
60257;SDS011;46115;44.484;11.314;2023-04-24T11:51:54;5.05;;;2.70;;
60257;SDS011;46115;44.484;11.314;2023-04-24T11:55:57;3.00;;;2.10;;
60257;SDS011;46115;44.484;11.314;2023-04-24T12:00:06;7.28;;;2.70;;
60257;SDS011;46115;44.484;11.314;2023-04-24T12:04:14;5.57;;;3.30;;
60257;SDS011;46115;44.484;11.314;2023-04-24T12:08:26;5.53;;;3.10;;
60257;SDS011;46115;44.484;11.314;2023-04-24T12:12:30;3.72;;;2.58;;
60257;SDS011;46115;44.484;11.314;2023-04-24T12:16:34;6.95;;;2.72;;
60257;SDS011;46115;44.484;11.314;2023-04-24T12:20:36;6.18;;;2.88;;
60257;SDS011;46115;44.484;11.314;2023-04-24T12:29:01;6.82;;;3.67;;
60257;SDS011;46115;44.484;11.314;2023-04-24T12:33:06;4.20;;;2.85;;
60257;SDS011;46115;44.484;11.314;2023-04-24T12:37:09;4.13;;;2.90;;
60257;SDS011;46115;44.484;11.314;2023-04-24T12:41:13;6.75;;;2.90;;
60257;SDS011;46115;44.484;11.314;2023-04-24T12:45:16;5.82;;;3.35;;
60257;SDS011;46115;44.484;11.314;2023-04-24T12:49:21;3.67;;;2.90;;
60257;SDS011;46115;44.484;11.314;2023-04-24T12:53:24;4.03;;;2.60;;
60257;SDS011;46115;44.484;11.314;2023-04-24T12:57:28;6.68;;;3.17;;
60257;SDS011;46115;44.484;11.314;2023-04-24T13:01:31;4.80;;;3.13;;
60257;SDS011;46115;44.484;11.314;2023-04-24T13:05:35;7.15;;;2.90;;
60257;SDS011;46115;44.484;11.314;2023-04-24T13:09:38;4.35;;;2.10;;
60257;SDS011;46115;44.484;11.314;2023-04-24T13:13:40;4.78;;;2.25;;
60257;SDS011;46115;44.484;11.314;2023-04-24T13:17:42;3.83;;;2.70;;
60257;SDS011;46115;44.484;11.314;2023-04-24T13:21:46;5.05;;;2.90;;
60257;SDS011;46115;44.484;11.314;2023-04-24T13:25:48;4.80;;;2.80;;
60257;SDS011;46115;44.484;11.314;2023-04-24T13:29:51;3.90;;;2.58;;
60257;SDS011;46115;44.484;11.314;2023-04-24T13:33:53;4.22;;;2.30;;
60257;SDS011;46115;44.484;11.314;2023-04-24T13:37:57;3.10;;;2.25;;
60257;SDS011;46115;44.484;11.314;2023-04-24T13:42:02;5.70;;;2.67;;
60257;SDS011;46115;44.484;11.314;2023-04-24T13:46:04;8.80;;;2.60;;
60257;SDS011;46115;44.484;11.314;2023-04-24T13:50:07;3.35;;;2.33;;
60257;SDS011;46115;44.484;11.314;2023-04-24T13:54:12;4.50;;;2.42;;
60257;SDS011;46115;44.484;11.314;2023-04-24T13:58:14;3.30;;;2.40;;
60257;SDS011;46115;44.484;11.314;2023-04-24T14:02:16;3.70;;;2.60;;
60257;SDS011;46115;44.484;11.314;2023-04-24T14:06:19;3.47;;;2.50;;
60257;SDS011;46115;44.484;11.314;2023-04-24T14:10:23;5.90;;;2.70;;
60257;SDS011;46115;44.484;11.314;2023-04-24T14:14:26;4.05;;;2.67;;
60257;SDS011;46115;44.484;11.314;2023-04-24T14:18:30;4.25;;;2.40;;
60257;SDS011;46115;44.484;11.314;2023-04-24T14:22:32;4.25;;;2.55;;
60257;SDS011;46115;44.484;11.314;2023-04-24T14:26:36;3.53;;;2.30;;
60257;SDS011;46115;44.484;11.314;2023-04-24T14:30:39;3.92;;;1.90;;
60257;SDS011;46115;44.484;11.314;2023-04-24T14:34:41;3.55;;;1.80;;
60257;SDS011;46115;44.484;11.314;2023-04-24T14:38:43;4.35;;;2.13;;
60257;SDS011;46115;44.484;11.314;2023-04-24T14:42:47;2.60;;;1.95;;
60257;SDS011;46115;44.484;11.314;2023-04-24T14:46:50;2.47;;;1.85;;
60257;SDS011;46115;44.484;11.314;2023-04-24T14:50:52;3.10;;;2.20;;
60257;SDS011;46115;44.484;11.314;2023-04-24T14:54:55;3.25;;;2.10;;
60257;SDS011;46115;44.484;11.314;2023-04-24T14:58:59;2.70;;;2.00;;
60257;SDS011;46115;44.484;11.314;2023-04-24T15:03:01;4.82;;;2.05;;
60257;SDS011;46115;44.484;11.314;2023-04-24T15:07:04;2.67;;;2.00;;
60257;SDS011;46115;44.484;11.314;2023-04-24T15:11:06;2.85;;;2.05;;
60257;SDS011;46115;44.484;11.314;2023-04-24T15:15:10;3.00;;;1.80;;
60257;SDS011;46115;44.484;11.314;2023-04-24T15:19:12;3.33;;;2.50;;
60257;SDS011;46115;44.484;11.314;2023-04-24T15:23:15;3.72;;;2.30;;
60257;SDS011;46115;44.484;11.314;2023-04-24T15:27:17;3.97;;;1.30;;
60257;SDS011;46115;44.484;11.314;2023-04-24T15:31:21;2.53;;;1.17;;
60257;SDS011;46115;44.484;11.314;2023-04-24T15:35:24;8.55;;;1.45;;
60257;SDS011;46115;44.484;11.314;2023-04-24T15:39:26;2.85;;;1.00;;
60257;SDS011;46115;44.484;11.314;2023-04-24T15:43:28;2.00;;;1.00;;
60257;SDS011;46115;44.484;11.314;2023-04-24T15:47:33;4.95;;;1.10;;
60257;SDS011;46115;44.484;11.314;2023-04-24T15:51:35;2.17;;;1.00;;
60257;SDS011;46115;44.484;11.314;2023-04-24T15:55:38;2.20;;;0.80;;
60257;SDS011;46115;44.484;11.314;2023-04-24T15:59:40;2.90;;;0.90;;
60257;SDS011;46115;44.484;11.314;2023-04-24T16:03:44;2.10;;;0.90;;
60257;SDS011;46115;44.484;11.314;2023-04-24T16:07:46;2.22;;;0.80;;
60257;SDS011;46115;44.484;11.314;2023-04-24T16:11:48;1.00;;;0.70;;
60257;SDS011;46115;44.484;11.314;2023-04-24T16:15:51;1.95;;;0.80;;
60257;SDS011;46115;44.484;11.314;2023-04-24T16:19:55;1.83;;;0.70;;
60257;SDS011;46115;44.484;11.314;2023-04-24T16:23:57;1.42;;;0.70;;
60257;SDS011;46115;44.484;11.314;2023-04-24T16:27:59;14.90;;;0.73;;
60257;SDS011;46115;44.484;11.314;2023-04-24T16:32:02;1.80;;;0.68;;
60257;SDS011;46115;44.484;11.314;2023-04-24T16:36:05;0.85;;;0.52;;
60257;SDS011;46115;44.484;11.314;2023-04-24T16:40:08;2.95;;;0.60;;
60257;SDS011;46115;44.484;11.314;2023-04-24T16:44:12;7.22;;;4.80;;
60257;SDS011;46115;44.484;11.314;2023-04-24T16:48:14;3.65;;;0.68;;
60257;SDS011;46115;44.484;11.314;2023-04-24T16:52:18;2.00;;;0.80;;
60257;SDS011;46115;44.484;11.314;2023-04-24T16:56:20;3.30;;;1.20;;
60257;SDS011;46115;44.484;11.314;2023-04-24T17:00:22;3.17;;;1.10;;
60257;SDS011;46115;44.484;11.314;2023-04-24T17:04:25;3.15;;;1.00;;
60257;SDS011;46115;44.484;11.314;2023-04-24T17:08:29;1.50;;;0.80;;
60257;SDS011;46115;44.484;11.314;2023-04-24T17:12:32;1.25;;;0.70;;
60257;SDS011;46115;44.484;11.314;2023-04-24T17:16:35;3.05;;;0.70;;
60257;SDS011;46115;44.484;11.314;2023-04-24T17:20:38;2.83;;;0.80;;
60257;SDS011;46115;44.484;11.314;2023-04-24T17:24:41;2.53;;;1.00;;
60257;SDS011;46115;44.484;11.314;2023-04-24T17:28:44;2.50;;;1.35;;
60257;SDS011;46115;44.484;11.314;2023-04-24T17:32:46;2.80;;;1.30;;
60257;SDS011;46115;44.484;11.314;2023-04-24T17:36:48;1.00;;;0.80;;
60257;SDS011;46115;44.484;11.314;2023-04-24T17:40:52;2.65;;;0.60;;
60257;SDS011;46115;44.484;11.314;2023-04-24T17:44:55;1.23;;;0.73;;
60257;SDS011;46115;44.484;11.314;2023-04-24T17:48:57;1.38;;;0.55;;
60257;SDS011;46115;44.484;11.314;2023-04-24T17:52:59;1.33;;;0.60;;
60257;SDS011;46115;44.484;11.314;2023-04-24T17:57:03;1.40;;;0.60;;
60257;SDS011;46115;44.484;11.314;2023-04-24T18:01:05;1.42;;;0.77;;
60257;SDS011;46115;44.484;11.314;2023-04-24T18:05:08;1.40;;;0.60;;
60257;SDS011;46115;44.484;11.314;2023-04-24T18:09:10;3.28;;;0.70;;
60257;SDS011;46115;44.484;11.314;2023-04-24T18:13:16;0.98;;;0.50;;
60257;SDS011;46115;44.484;11.314;2023-04-24T18:17:18;0.98;;;0.50;;
60257;SDS011;46115;44.484;11.314;2023-04-24T18:21:21;2.17;;;0.60;;
60257;SDS011;46115;44.484;11.314;2023-04-24T18:25:24;0.98;;;0.60;;
60257;SDS011;46115;44.484;11.314;2023-04-24T18:29:28;0.80;;;0.60;;
60257;SDS011;46115;44.484;11.314;2023-04-24T18:33:31;1.10;;;0.60;;
60257;SDS011;46115;44.484;11.314;2023-04-24T18:37:33;1.35;;;0.70;;
60257;SDS011;46115;44.484;11.314;2023-04-24T18:41:35;1.77;;;0.60;;
60257;SDS011;46115;44.484;11.314;2023-04-24T18:45:39;1.38;;;0.60;;
60257;SDS011;46115;44.484;11.314;2023-04-24T18:49:42;3.08;;;0.70;;
60257;SDS011;46115;44.484;11.314;2023-04-24T18:53:44;1.80;;;0.80;;
60257;SDS011;46115;44.484;11.314;2023-04-24T22:06:08;3.13;;;1.30;;
60257;SDS011;46115;44.484;11.314;2023-04-24T22:10:11;5.35;;;1.50;;
60257;SDS011;46115;44.484;11.314;2023-04-24T22:14:15;6.80;;;1.60;;
60257;SDS011;46115;44.484;11.314;2023-04-24T22:22:40;10.20;;;1.80;;
60257;SDS011;46115;44.484;11.314;2023-04-24T22:26:42;4.57;;;1.88;;
60257;SDS011;46115;44.484;11.314;2023-04-24T22:30:45;7.15;;;1.95;;
60257;SDS011;46115;44.484;11.314;2023-04-24T22:38:51;10.65;;;2.28;;
60257;SDS011;46115;44.484;11.314;2023-04-24T22:42:53;9.38;;;2.20;;
60257;SDS011;46115;44.484;11.314;2023-04-24T22:46:55;8.15;;;2.20;;
60257;SDS011;46115;44.484;11.314;2023-04-24T22:50:58;9.93;;;2.40;;
60257;SDS011;46115;44.484;11.314;2023-04-24T22:59:04;11.90;;;2.45;;
60257;SDS011;46115;44.484;11.314;2023-04-24T23:03:07;7.50;;;2.17;;
60257;SDS011;46115;44.484;11.314;2023-04-24T23:07:09;10.80;;;2.22;;
60257;SDS011;46115;44.484;11.314;2023-04-24T23:15:15;9.82;;;2.33;;
60257;SDS011;46115;44.484;11.314;2023-04-24T23:19:17;13.18;;;2.35;;
60257;SDS011;46115;44.484;11.314;2023-04-24T23:27:23;13.52;;;2.35;;
60257;SDS011;46115;44.484;11.314;2023-04-24T23:31:25;6.85;;;2.10;;
60257;SDS011;46115;44.484;11.314;2023-04-24T23:39:30;9.00;;;2.25;;
60257;SDS011;46115;44.484;11.314;2023-04-24T23:43:34;9.43;;;2.45;;
60257;SDS011;46115;44.484;11.314;2023-04-24T23:47:36;12.70;;;2.13;;
60257;SDS011;46115;44.484;11.314;2023-04-24T23:55:40;17.02;;;2.72;;
60257;SDS011;46115;44.484;11.314;2023-04-24T23:59:44;11.00;;;2.35;;
